ADDS METAR Data INFO
IDs: Format: Raw Decoded Include TAF

Data at: 0145 UTC 17 Oct 2017

PATK 170053Z 21004KT 10SM CLR 04/M05 A2955 RMK AO2 SLP010 T00391050
PATK 162353Z 21004KT 10SM CLR 03/M04 A2955 RMK AO2 SNE00 SLP012 P0000 60000 T00331044 10039 21050 58001
PATK 162253Z 24003KT 10SM -SN CLR 03/M05 A2955 RMK AO2 SNB52 SLP013 P0000 T00331050
PATK 162153Z 00000KT 10SM CLR 02/M04 A2956 RMK AO2 SLP014 T00221044
PATK 162053Z 24003KT 10SM CLR 01/M04 A2956 RMK AO2 SLP015 T00111039 51008
PATK 161953Z 22003KT 10SM OVC090 M01/M03 A2955 RMK AO2 SLP013 T10061033
PATK 161853Z 00000KT 10SM OVC090 M02/M04 A2954 RMK AO2 SLP009 T10221044
PATK 161753Z 00000KT 10SM BKN090 M06/M07 A2953 RMK AO2 SLP006 T10561067 11028 21067 52003
PATK 161653Z 00000KT 8SM CLR M06/M07 A2953 RMK AO2 SLP005 T10561067
PATK 161553Z AUTO 00000KT 10SM CLR M05/M07 A2953 RMK AO2 SLP005 T10501067 TSNO
PATK 161453Z AUTO 04003KT 10SM FEW080 M04/M06 A2952 RMK AO2 SLP003 T10441056 53002 TSNO
PATK 161353Z AUTO 00000KT 9SM OVC080 M03/M05 A2952 RMK AO2 SLP001 T10331050 TSNO
PATK 161253Z AUTO 00000KT 10SM OVC075 M03/M05 A2951 RMK AO2 SLP999 T10331050 TSNO
PATK 161153Z AUTO 00000KT 10SM OVC075 M04/M05 A2951 RMK AO2 SLP000 T10391050 11028 21050 51000 TSNO
PATK 161053Z AUTO 00000KT 10SM OVC075 M04/M06 A2951 RMK AO2 SLP000 T10391056 TSNO
PATK 160953Z AUTO 00000KT 10SM OVC075 M04/M06 A2951 RMK AO2 SLP000 T10391056 TSNO
PATK 160853Z AUTO 00000KT 10SM BKN075 M04/M06 A2951 RMK AO2 SLP999 T10441056 400611050 51009 TSNO
PATK 160753Z AUTO 00000KT 10SM CLR M04/M06 A2951 RMK AO2 SLP998 T10391056 TSNO
PATK 160653Z AUTO 00000KT 10SM CLR M04/M06 A2950 RMK AO2 SLP995 T10391056 TSNO
PATK 160553Z AUTO 00000KT 10SM CLR M03/M05 A2949 RMK AO2 SLP992 T10281050 10061 21028 52009 TSNO
PATK 160453Z AUTO 00000KT 10SM CLR M02/M05 A2948 RMK AO2 SLP988 T10171050 TSNO
PATK 160353Z AUTO 00000KT 10SM CLR 01/M05 A2947 RMK AO2 SLP986 T00061050 TSNO
PATK 160253Z AUTO 01003KT 10SM CLR 01/M05 A2946 RMK AO2 SLP982 T00111050 53002 TSNO
PATK 160153Z AUTO 01005KT 10SM CLR 04/M07 A2945 RMK AO2 SLP979 T00441067 TSNO
PATK 160053Z 02006KT 10SM SCT200 06/M07 A2945 RMK AO2 SLP978 T00561072
PATK 152353Z 33005KT 10SM SCT200 06/M07 A2945 RMK AO2 SLP978 T00611067 10061 21033 58005
PATK 152253Z COR VRB03KT 10SM SCT200 06/M06 A2946 RMK AO2 SLP981 T00561056
PATK 152153Z 35004KT 10SM SCT200 05/M06 A2946 RMK AO2 SLP982 T00501056
PATK 152053Z 33004KT 10SM SCT200 03/M04 A2947 RMK AO2 SLP984 T00331044 56001
PATK 151953Z 01003KT 10SM SCT200 02/M04 A2947 RMK SLP984 T00171039 VIA AUTODIAL
PATK 151853Z 04004KT 10SM SCT200 M01/M04 A2947 RMK SLP983 T10061044 VIA AUTODIAL
PATK 151753Z 00000KT 10SM CLR M03/M05 A2947 RMK SLP985 T10331050 11006 21044 56004 VIA AUTODIAL
PATK 151653Z 05003KT 10SM CLR M03/M04 A2947 RMK SLP985 T10281044 VIA AUTODIAL
PATK 151553Z 03003KT 10SM CLR M04/M06 A2947 RMK SLP987 T10391056 VIA AUTODIAL
PATK 151453Z AUTO 00000KT 10SM CLR M03/M05 A2948 RMK SLP988 T10331050 56008 TSNO VIA AUTODIAL
PATK 151353Z AUTO 00000KT 10SM CLR M03/M05 A2949 RMK SLP990 T10281050 TSNO VIA AUTODIAL